sensor_id;sensor_type;location;lat;lon;timestamp;P1;durP1;ratioP1;P2;durP2;ratioP2
11245;SDS011;59870;50.106;8.580;2024-01-30T00:00:37;21.07;;;18.70;;
11245;SDS011;59870;50.106;8.580;2024-01-30T00:03:04;19.17;;;17.27;;
11245;SDS011;59870;50.106;8.580;2024-01-30T00:05:32;22.07;;;18.93;;
11245;SDS011;59870;50.106;8.580;2024-01-30T00:08:00;20.43;;;18.33;;
11245;SDS011;59870;50.106;8.580;2024-01-30T00:10:27;21.87;;;18.37;;
11245;SDS011;59870;50.106;8.580;2024-01-30T00:12:56;22.20;;;19.00;;
11245;SDS011;59870;50.106;8.580;2024-01-30T00:15:23;21.23;;;18.33;;
11245;SDS011;59870;50.106;8.580;2024-01-30T00:17:51;21.03;;;17.87;;
11245;SDS011;59870;50.106;8.580;2024-01-30T00:20:20;20.03;;;17.93;;
11245;SDS011;59870;50.106;8.580;2024-01-30T00:22:48;20.03;;;17.67;;
11245;SDS011;59870;50.106;8.580;2024-01-30T00:25:16;21.97;;;17.83;;
11245;SDS011;59870;50.106;8.580;2024-01-30T00:27:43;20.87;;;18.70;;
11245;SDS011;59870;50.106;8.580;2024-01-30T00:30:11;19.27;;;17.33;;
11245;SDS011;59870;50.106;8.580;2024-01-30T00:32:39;19.77;;;17.80;;
11245;SDS011;59870;50.106;8.580;2024-01-30T00:35:07;24.37;;;19.47;;
11245;SDS011;59870;50.106;8.580;2024-01-30T00:37:36;21.47;;;17.40;;
11245;SDS011;59870;50.106;8.580;2024-01-30T00:40:04;22.37;;;17.07;;
11245;SDS011;59870;50.106;8.580;2024-01-30T00:42:33;19.50;;;17.40;;
11245;SDS011;59870;50.106;8.580;2024-01-30T00:45:01;20.93;;;18.70;;
11245;SDS011;59870;50.106;8.580;2024-01-30T00:47:29;19.47;;;17.20;;
11245;SDS011;59870;50.106;8.580;2024-01-30T00:49:56;21.13;;;18.23;;
11245;SDS011;59870;50.106;8.580;2024-01-30T00:52:23;22.57;;;18.47;;
11245;SDS011;59870;50.106;8.580;2024-01-30T00:54:51;19.87;;;17.80;;
11245;SDS011;59870;50.106;8.580;2024-01-30T00:57:19;20.03;;;17.93;;
11245;SDS011;59870;50.106;8.580;2024-01-30T00:59:46;19.60;;;17.60;;
11245;SDS011;59870;50.106;8.580;2024-01-30T01:02:14;18.80;;;16.80;;
11245;SDS011;59870;50.106;8.580;2024-01-30T01:04:44;20.27;;;18.03;;
11245;SDS011;59870;50.106;8.580;2024-01-30T01:07:12;19.87;;;17.87;;
11245;SDS011;59870;50.106;8.580;2024-01-30T01:09:39;18.27;;;16.47;;
11245;SDS011;59870;50.106;8.580;2024-01-30T01:12:07;19.27;;;17.30;;
11245;SDS011;59870;50.106;8.580;2024-01-30T01:14:35;19.07;;;17.27;;
11245;SDS011;59870;50.106;8.580;2024-01-30T01:17:03;19.77;;;16.50;;
11245;SDS011;59870;50.106;8.580;2024-01-30T01:19:30;18.60;;;17.00;;
11245;SDS011;59870;50.106;8.580;2024-01-30T01:21:59;19.40;;;17.50;;
11245;SDS011;59870;50.106;8.580;2024-01-30T01:24:27;19.40;;;17.40;;
11245;SDS011;59870;50.106;8.580;2024-01-30T01:26:54;18.77;;;16.57;;
11245;SDS011;59870;50.106;8.580;2024-01-30T01:29:24;19.43;;;17.53;;
11245;SDS011;59870;50.106;8.580;2024-01-30T01:31:56;19.27;;;17.30;;
11245;SDS011;59870;50.106;8.580;2024-01-30T01:34:24;19.43;;;17.67;;
11245;SDS011;59870;50.106;8.580;2024-01-30T01:36:57;22.20;;;17.93;;
11245;SDS011;59870;50.106;8.580;2024-01-30T01:39:24;18.83;;;16.77;;
11245;SDS011;59870;50.106;8.580;2024-01-30T01:41:52;19.27;;;17.23;;
11245;SDS011;59870;50.106;8.580;2024-01-30T01:44:19;27.13;;;18.93;;
11245;SDS011;59870;50.106;8.580;2024-01-30T01:46:47;22.50;;;18.77;;
11245;SDS011;59870;50.106;8.580;2024-01-30T01:49:14;18.53;;;16.77;;
11245;SDS011;59870;50.106;8.580;2024-01-30T01:51:42;20.07;;;17.83;;
11245;SDS011;59870;50.106;8.580;2024-01-30T01:54:11;23.17;;;18.97;;
11245;SDS011;59870;50.106;8.580;2024-01-30T01:56:42;19.07;;;17.17;;
11245;SDS011;59870;50.106;8.580;2024-01-30T01:59:10;18.23;;;16.33;;
11245;SDS011;59870;50.106;8.580;2024-01-30T02:01:37;19.40;;;17.50;;
11245;SDS011;59870;50.106;8.580;2024-01-30T02:04:08;18.70;;;16.80;;
11245;SDS011;59870;50.106;8.580;2024-01-30T02:06:36;19.20;;;17.40;;
11245;SDS011;59870;50.106;8.580;2024-01-30T02:09:04;18.70;;;16.90;;
11245;SDS011;59870;50.106;8.580;2024-01-30T02:11:32;19.80;;;17.73;;
11245;SDS011;59870;50.106;8.580;2024-01-30T02:14:03;18.60;;;16.67;;
11245;SDS011;59870;50.106;8.580;2024-01-30T02:16:31;18.33;;;16.03;;
11245;SDS011;59870;50.106;8.580;2024-01-30T02:18:59;18.77;;;16.97;;
11245;SDS011;59870;50.106;8.580;2024-01-30T02:21:30;18.37;;;16.50;;
11245;SDS011;59870;50.106;8.580;2024-01-30T02:23:58;20.53;;;16.87;;
11245;SDS011;59870;50.106;8.580;2024-01-30T02:26:27;18.47;;;16.57;;
11245;SDS011;59870;50.106;8.580;2024-01-30T02:28:54;17.90;;;16.03;;
11245;SDS011;59870;50.106;8.580;2024-01-30T02:31:22;17.97;;;16.37;;
11245;SDS011;59870;50.106;8.580;2024-01-30T02:33:51;16.93;;;15.43;;
11245;SDS011;59870;50.106;8.580;2024-01-30T02:36:18;18.13;;;16.30;;
11245;SDS011;59870;50.106;8.580;2024-01-30T02:38:46;18.00;;;15.40;;
11245;SDS011;59870;50.106;8.580;2024-01-30T02:41:14;18.10;;;16.13;;
11245;SDS011;59870;50.106;8.580;2024-01-30T02:43:42;17.60;;;16.00;;
11245;SDS011;59870;50.106;8.580;2024-01-30T02:46:09;16.53;;;15.07;;
11245;SDS011;59870;50.106;8.580;2024-01-30T02:48:37;16.80;;;15.07;;
11245;SDS011;59870;50.106;8.580;2024-01-30T02:51:07;20.03;;;15.87;;
11245;SDS011;59870;50.106;8.580;2024-01-30T02:53:34;16.50;;;15.10;;
11245;SDS011;59870;50.106;8.580;2024-01-30T02:56:03;16.50;;;14.80;;
11245;SDS011;59870;50.106;8.580;2024-01-30T02:58:30;16.27;;;14.67;;
11245;SDS011;59870;50.106;8.580;2024-01-30T03:00:58;16.60;;;15.10;;
11245;SDS011;59870;50.106;8.580;2024-01-30T03:03:26;17.53;;;15.67;;
11245;SDS011;59870;50.106;8.580;2024-01-30T03:05:53;18.23;;;16.00;;
11245;SDS011;59870;50.106;8.580;2024-01-30T03:08:21;17.97;;;16.37;;
11245;SDS011;59870;50.106;8.580;2024-01-30T03:10:48;16.60;;;14.97;;
11245;SDS011;59870;50.106;8.580;2024-01-30T03:13:16;15.80;;;14.50;;
11245;SDS011;59870;50.106;8.580;2024-01-30T03:15:43;16.73;;;15.10;;
11245;SDS011;59870;50.106;8.580;2024-01-30T03:18:11;17.10;;;15.50;;
11245;SDS011;59870;50.106;8.580;2024-01-30T03:20:39;15.63;;;14.30;;
11245;SDS011;59870;50.106;8.580;2024-01-30T03:23:06;15.53;;;14.23;;
11245;SDS011;59870;50.106;8.580;2024-01-30T03:25:34;16.53;;;14.90;;
11245;SDS011;59870;50.106;8.580;2024-01-30T03:28:01;16.10;;;14.60;;
11245;SDS011;59870;50.106;8.580;2024-01-30T03:30:29;15.00;;;13.60;;
11245;SDS011;59870;50.106;8.580;2024-01-30T03:32:56;16.87;;;15.40;;
11245;SDS011;59870;50.106;8.580;2024-01-30T03:35:24;16.37;;;14.77;;
11245;SDS011;59870;50.106;8.580;2024-01-30T03:37:52;16.77;;;15.17;;
11245;SDS011;59870;50.106;8.580;2024-01-30T03:40:19;16.50;;;14.93;;
11245;SDS011;59870;50.106;8.580;2024-01-30T03:42:47;16.60;;;14.90;;
11245;SDS011;59870;50.106;8.580;2024-01-30T03:45:15;16.57;;;15.00;;
11245;SDS011;59870;50.106;8.580;2024-01-30T03:47:43;15.87;;;14.33;;
11245;SDS011;59870;50.106;8.580;2024-01-30T03:50:10;17.97;;;16.07;;
11245;SDS011;59870;50.106;8.580;2024-01-30T03:52:38;16.10;;;14.60;;
11245;SDS011;59870;50.106;8.580;2024-01-30T03:55:06;15.87;;;14.43;;
11245;SDS011;59870;50.106;8.580;2024-01-30T03:57:33;17.07;;;15.50;;
11245;SDS011;59870;50.106;8.580;2024-01-30T04:00:01;17.43;;;15.63;;
11245;SDS011;59870;50.106;8.580;2024-01-30T04:02:38;16.17;;;14.57;;
11245;SDS011;59870;50.106;8.580;2024-01-30T04:05:05;15.83;;;14.53;;
11245;SDS011;59870;50.106;8.580;2024-01-30T04:07:33;17.77;;;15.00;;
11245;SDS011;59870;50.106;8.580;2024-01-30T04:10:01;17.50;;;15.80;;
11245;SDS011;59870;50.106;8.580;2024-01-30T04:12:28;16.73;;;14.97;;
11245;SDS011;59870;50.106;8.580;2024-01-30T04:14:56;18.03;;;16.27;;
11245;SDS011;59870;50.106;8.580;2024-01-30T04:17:23;16.23;;;14.63;;
11245;SDS011;59870;50.106;8.580;2024-01-30T04:19:51;16.70;;;14.93;;
11245;SDS011;59870;50.106;8.580;2024-01-30T04:22:19;16.37;;;14.57;;
11245;SDS011;59870;50.106;8.580;2024-01-30T04:24:46;18.33;;;15.33;;
11245;SDS011;59870;50.106;8.580;2024-01-30T04:27:14;16.50;;;14.80;;
11245;SDS011;59870;50.106;8.580;2024-01-30T04:29:41;18.70;;;15.77;;
11245;SDS011;59870;50.106;8.580;2024-01-30T04:32:09;16.87;;;15.13;;
11245;SDS011;59870;50.106;8.580;2024-01-30T04:34:37;16.53;;;15.07;;
11245;SDS011;59870;50.106;8.580;2024-01-30T04:37:04;17.27;;;15.57;;
11245;SDS011;59870;50.106;8.580;2024-01-30T04:39:35;16.63;;;15.17;;
11245;SDS011;59870;50.106;8.580;2024-01-30T04:42:03;16.30;;;14.93;;
11245;SDS011;59870;50.106;8.580;2024-01-30T04:44:35;17.03;;;14.47;;
11245;SDS011;59870;50.106;8.580;2024-01-30T04:47:02;16.27;;;14.67;;
11245;SDS011;59870;50.106;8.580;2024-01-30T04:49:32;16.57;;;14.97;;
11245;SDS011;59870;50.106;8.580;2024-01-30T04:52:00;17.37;;;15.77;;
11245;SDS011;59870;50.106;8.580;2024-01-30T04:54:28;17.20;;;15.40;;
11245;SDS011;59870;50.106;8.580;2024-01-30T04:56:55;16.67;;;15.07;;
11245;SDS011;59870;50.106;8.580;2024-01-30T04:59:23;15.80;;;14.20;;
11245;SDS011;59870;50.106;8.580;2024-01-30T05:01:52;15.63;;;14.10;;
11245;SDS011;59870;50.106;8.580;2024-01-30T05:04:19;14.93;;;13.63;;
11245;SDS011;59870;50.106;8.580;2024-01-30T05:06:47;14.73;;;13.43;;
11245;SDS011;59870;50.106;8.580;2024-01-30T05:09:15;15.67;;;14.20;;
11245;SDS011;59870;50.106;8.580;2024-01-30T05:11:42;16.43;;;14.93;;
11245;SDS011;59870;50.106;8.580;2024-01-30T05:14:10;16.00;;;14.30;;
11245;SDS011;59870;50.106;8.580;2024-01-30T05:16:38;15.80;;;13.43;;
11245;SDS011;59870;50.106;8.580;2024-01-30T05:19:06;14.77;;;13.47;;
11245;SDS011;59870;50.106;8.580;2024-01-30T05:21:33;14.90;;;13.30;;
11245;SDS011;59870;50.106;8.580;2024-01-30T05:24:01;14.90;;;13.50;;
11245;SDS011;59870;50.106;8.580;2024-01-30T05:26:31;13.83;;;12.47;;
11245;SDS011;59870;50.106;8.580;2024-01-30T05:28:58;15.17;;;13.63;;
11245;SDS011;59870;50.106;8.580;2024-01-30T05:31:26;14.07;;;12.83;;
11245;SDS011;59870;50.106;8.580;2024-01-30T05:33:54;18.83;;;13.20;;
11245;SDS011;59870;50.106;8.580;2024-01-30T05:36:22;13.83;;;12.63;;
11245;SDS011;59870;50.106;8.580;2024-01-30T05:38:50;17.20;;;13.10;;
11245;SDS011;59870;50.106;8.580;2024-01-30T05:41:17;14.57;;;13.07;;
11245;SDS011;59870;50.106;8.580;2024-01-30T05:43:45;14.63;;;13.40;;
11245;SDS011;59870;50.106;8.580;2024-01-30T05:46:13;14.67;;;13.13;;
11245;SDS011;59870;50.106;8.580;2024-01-30T05:48:41;15.20;;;13.80;;
11245;SDS011;59870;50.106;8.580;2024-01-30T05:51:08;14.17;;;12.77;;
11245;SDS011;59870;50.106;8.580;2024-01-30T05:53:37;14.43;;;13.13;;
11245;SDS011;59870;50.106;8.580;2024-01-30T05:56:05;14.17;;;12.30;;
11245;SDS011;59870;50.106;8.580;2024-01-30T05:58:33;14.10;;;12.73;;
11245;SDS011;59870;50.106;8.580;2024-01-30T06:01:00;13.83;;;12.43;;
11245;SDS011;59870;50.106;8.580;2024-01-30T06:03:28;15.20;;;13.13;;
11245;SDS011;59870;50.106;8.580;2024-01-30T06:05:55;17.97;;;14.87;;
11245;SDS011;59870;50.106;8.580;2024-01-30T06:08:23;18.10;;;15.80;;
11245;SDS011;59870;50.106;8.580;2024-01-30T06:10:50;15.30;;;13.67;;
11245;SDS011;59870;50.106;8.580;2024-01-30T06:13:19;19.33;;;14.23;;
11245;SDS011;59870;50.106;8.580;2024-01-30T06:15:47;16.67;;;13.90;;
11245;SDS011;59870;50.106;8.580;2024-01-30T06:18:14;15.10;;;13.60;;
11245;SDS011;59870;50.106;8.580;2024-01-30T06:20:42;15.90;;;14.10;;
11245;SDS011;59870;50.106;8.580;2024-01-30T06:23:09;17.00;;;13.50;;
11245;SDS011;59870;50.106;8.580;2024-01-30T06:28:33;13.83;;;12.27;;
11245;SDS011;59870;50.106;8.580;2024-01-30T06:31:01;15.03;;;13.63;;
11245;SDS011;59870;50.106;8.580;2024-01-30T06:33:29;15.53;;;13.43;;
11245;SDS011;59870;50.106;8.580;2024-01-30T06:35:57;14.40;;;12.00;;
11245;SDS011;59870;50.106;8.580;2024-01-30T06:38:25;14.67;;;13.33;;
11245;SDS011;59870;50.106;8.580;2024-01-30T06:40:52;14.13;;;12.83;;
11245;SDS011;59870;50.106;8.580;2024-01-30T06:43:20;15.00;;;13.50;;
11245;SDS011;59870;50.106;8.580;2024-01-30T06:45:50;14.47;;;12.97;;
11245;SDS011;59870;50.106;8.580;2024-01-30T06:48:18;14.90;;;13.33;;
11245;SDS011;59870;50.106;8.580;2024-01-30T06:50:46;13.27;;;12.07;;
11245;SDS011;59870;50.106;8.580;2024-01-30T06:53:14;14.43;;;12.93;;
11245;SDS011;59870;50.106;8.580;2024-01-30T06:55:42;15.63;;;14.07;;
11245;SDS011;59870;50.106;8.580;2024-01-30T06:58:09;14.50;;;13.10;;
11245;SDS011;59870;50.106;8.580;2024-01-30T07:00:37;17.20;;;15.40;;
11245;SDS011;59870;50.106;8.580;2024-01-30T07:03:05;15.57;;;14.13;;
11245;SDS011;59870;50.106;8.580;2024-01-30T07:05:33;15.17;;;13.77;;
11245;SDS011;59870;50.106;8.580;2024-01-30T07:08:02;19.33;;;14.97;;
11245;SDS011;59870;50.106;8.580;2024-01-30T07:10:30;16.40;;;14.83;;
11245;SDS011;59870;50.106;8.580;2024-01-30T07:16:13;16.23;;;14.67;;
11245;SDS011;59870;50.106;8.580;2024-01-30T07:18:49;18.47;;;14.03;;
11245;SDS011;59870;50.106;8.580;2024-01-30T07:22:12;15.23;;;12.70;;
11245;SDS011;59870;50.106;8.580;2024-01-30T07:25:43;16.60;;;14.83;;
11245;SDS011;59870;50.106;8.580;2024-01-30T07:28:16;18.43;;;15.50;;
11245;SDS011;59870;50.106;8.580;2024-01-30T07:30:45;15.63;;;14.30;;
11245;SDS011;59870;50.106;8.580;2024-01-30T07:33:13;15.30;;;13.87;;
11245;SDS011;59870;50.106;8.580;2024-01-30T07:35:41;15.83;;;14.37;;
11245;SDS011;59870;50.106;8.580;2024-01-30T07:38:09;15.57;;;13.93;;
11245;SDS011;59870;50.106;8.580;2024-01-30T07:40:37;16.70;;;15.10;;
11245;SDS011;59870;50.106;8.580;2024-01-30T07:43:04;16.73;;;14.97;;
11245;SDS011;59870;50.106;8.580;2024-01-30T07:45:33;16.77;;;15.10;;
11245;SDS011;59870;50.106;8.580;2024-01-30T07:48:00;17.20;;;15.33;;
11245;SDS011;59870;50.106;8.580;2024-01-30T07:50:28;15.93;;;14.40;;
11245;SDS011;59870;50.106;8.580;2024-01-30T07:52:56;15.23;;;13.77;;
11245;SDS011;59870;50.106;8.580;2024-01-30T07:55:24;16.30;;;14.70;;
11245;SDS011;59870;50.106;8.580;2024-01-30T07:57:55;17.63;;;16.03;;
11245;SDS011;59870;50.106;8.580;2024-01-30T08:00:23;17.03;;;15.43;;
11245;SDS011;59870;50.106;8.580;2024-01-30T08:02:51;17.40;;;15.70;;
11245;SDS011;59870;50.106;8.580;2024-01-30T08:05:21;18.83;;;14.90;;
11245;SDS011;59870;50.106;8.580;2024-01-30T08:07:52;16.63;;;15.13;;
11245;SDS011;59870;50.106;8.580;2024-01-30T08:10:20;18.77;;;16.27;;
11245;SDS011;59870;50.106;8.580;2024-01-30T08:12:48;19.57;;;16.17;;
11245;SDS011;59870;50.106;8.580;2024-01-30T08:15:16;18.40;;;16.50;;
11245;SDS011;59870;50.106;8.580;2024-01-30T08:17:43;17.73;;;16.00;;
11245;SDS011;59870;50.106;8.580;2024-01-30T08:20:11;17.67;;;16.00;;
11245;SDS011;59870;50.106;8.580;2024-01-30T08:22:41;17.57;;;15.77;;
11245;SDS011;59870;50.106;8.580;2024-01-30T08:25:09;17.60;;;16.00;;
11245;SDS011;59870;50.106;8.580;2024-01-30T08:27:37;17.47;;;15.77;;
11245;SDS011;59870;50.106;8.580;2024-01-30T08:30:06;18.47;;;16.37;;
11245;SDS011;59870;50.106;8.580;2024-01-30T08:33:00;17.83;;;16.00;;
11245;SDS011;59870;50.106;8.580;2024-01-30T08:35:54;19.87;;;17.13;;
11245;SDS011;59870;50.106;8.580;2024-01-30T08:41:27;28.50;;;19.47;;
11245;SDS011;59870;50.106;8.580;2024-01-30T08:44:35;18.87;;;17.03;;
11245;SDS011;59870;50.106;8.580;2024-01-30T08:50:30;25.53;;;18.97;;
11245;SDS011;59870;50.106;8.580;2024-01-30T08:53:02;19.43;;;17.33;;
11245;SDS011;59870;50.106;8.580;2024-01-30T08:55:42;22.03;;;18.67;;
11245;SDS011;59870;50.106;8.580;2024-01-30T08:58:30;23.30;;;18.23;;
11245;SDS011;59870;50.106;8.580;2024-01-30T09:01:32;21.10;;;17.53;;
11245;SDS011;59870;50.106;8.580;2024-01-30T09:09:46;22.90;;;17.43;;
11245;SDS011;59870;50.106;8.580;2024-01-30T09:12:34;21.07;;;17.60;;
11245;SDS011;59870;50.106;8.580;2024-01-30T09:15:04;23.37;;;17.47;;
11245;SDS011;59870;50.106;8.580;2024-01-30T09:17:35;19.07;;;16.77;;
11245;SDS011;59870;50.106;8.580;2024-01-30T09:20:06;18.30;;;16.57;;
11245;SDS011;59870;50.106;8.580;2024-01-30T09:22:37;20.53;;;16.20;;
11245;SDS011;59870;50.106;8.580;2024-01-30T09:25:07;18.40;;;16.70;;
11245;SDS011;59870;50.106;8.580;2024-01-30T09:27:37;22.80;;;17.73;;
11245;SDS011;59870;50.106;8.580;2024-01-30T09:30:07;19.90;;;17.90;;
11245;SDS011;59870;50.106;8.580;2024-01-30T09:32:36;23.03;;;19.63;;
11245;SDS011;59870;50.106;8.580;2024-01-30T09:35:08;20.43;;;18.00;;
11245;SDS011;59870;50.106;8.580;2024-01-30T09:40:32;21.00;;;18.87;;
11245;SDS011;59870;50.106;8.580;2024-01-30T09:43:00;21.83;;;19.77;;
11245;SDS011;59870;50.106;8.580;2024-01-30T09:45:28;22.83;;;20.40;;
11245;SDS011;59870;50.106;8.580;2024-01-30T09:47:59;22.90;;;20.50;;
11245;SDS011;59870;50.106;8.580;2024-01-30T09:50:28;21.03;;;18.87;;
11245;SDS011;59870;50.106;8.580;2024-01-30T09:52:56;21.50;;;19.20;;
11245;SDS011;59870;50.106;8.580;2024-01-30T09:58:21;20.07;;;18.23;;
11245;SDS011;59870;50.106;8.580;2024-01-30T10:01:23;21.47;;;19.20;;
11245;SDS011;59870;50.106;8.580;2024-01-30T10:03:54;20.50;;;18.60;;
11245;SDS011;59870;50.106;8.580;2024-01-30T10:06:24;22.00;;;19.57;;
11245;SDS011;59870;50.106;8.580;2024-01-30T10:08:52;21.17;;;19.07;;
11245;SDS011;59870;50.106;8.580;2024-01-30T10:11:20;21.77;;;18.33;;
11245;SDS011;59870;50.106;8.580;2024-01-30T10:13:48;21.70;;;19.37;;
11245;SDS011;59870;50.106;8.580;2024-01-30T10:16:16;21.20;;;19.13;;
11245;SDS011;59870;50.106;8.580;2024-01-30T10:18:44;21.73;;;19.50;;
11245;SDS011;59870;50.106;8.580;2024-01-30T10:21:12;20.90;;;18.80;;
11245;SDS011;59870;50.106;8.580;2024-01-30T10:23:40;21.17;;;19.00;;
11245;SDS011;59870;50.106;8.580;2024-01-30T10:26:07;22.50;;;18.07;;
11245;SDS011;59870;50.106;8.580;2024-01-30T10:28:37;20.57;;;18.40;;
11245;SDS011;59870;50.106;8.580;2024-01-30T10:31:20;21.27;;;18.97;;
11245;SDS011;59870;50.106;8.580;2024-01-30T10:34:06;22.17;;;19.77;;
11245;SDS011;59870;50.106;8.580;2024-01-30T10:36:46;21.37;;;18.93;;
11245;SDS011;59870;50.106;8.580;2024-01-30T10:43:01;22.20;;;19.87;;
11245;SDS011;59870;50.106;8.580;2024-01-30T10:45:31;21.93;;;19.77;;
11245;SDS011;59870;50.106;8.580;2024-01-30T10:52:06;22.40;;;20.10;;
11245;SDS011;59870;50.106;8.580;2024-01-30T10:54:37;21.73;;;19.73;;
11245;SDS011;59870;50.106;8.580;2024-01-30T10:57:05;23.57;;;19.87;;
11245;SDS011;59870;50.106;8.580;2024-01-30T10:59:34;21.70;;;19.57;;
11245;SDS011;59870;50.106;8.580;2024-01-30T11:02:02;22.73;;;19.60;;
11245;SDS011;59870;50.106;8.580;2024-01-30T11:04:42;20.73;;;18.93;;
11245;SDS011;59870;50.106;8.580;2024-01-30T11:07:14;23.27;;;20.30;;
11245;SDS011;59870;50.106;8.580;2024-01-30T11:09:50;23.47;;;19.63;;
11245;SDS011;59870;50.106;8.580;2024-01-30T11:12:22;22.73;;;20.27;;
11245;SDS011;59870;50.106;8.580;2024-01-30T11:20:21;21.70;;;19.67;;
11245;SDS011;59870;50.106;8.580;2024-01-30T11:22:52;22.47;;;20.07;;
11245;SDS011;59870;50.106;8.580;2024-01-30T11:25:21;20.87;;;18.80;;
11245;SDS011;59870;50.106;8.580;2024-01-30T11:27:51;21.90;;;19.80;;
11245;SDS011;59870;50.106;8.580;2024-01-30T11:30:24;21.47;;;19.17;;
11245;SDS011;59870;50.106;8.580;2024-01-30T11:35:33;21.80;;;19.67;;
11245;SDS011;59870;50.106;8.580;2024-01-30T11:38:02;23.37;;;19.80;;
11245;SDS011;59870;50.106;8.580;2024-01-30T11:40:31;21.47;;;19.23;;
11245;SDS011;59870;50.106;8.580;2024-01-30T11:43:03;21.70;;;19.50;;
11245;SDS011;59870;50.106;8.580;2024-01-30T11:45:32;23.60;;;20.33;;
11245;SDS011;59870;50.106;8.580;2024-01-30T11:48:01;22.23;;;19.97;;
11245;SDS011;59870;50.106;8.580;2024-01-30T11:50:31;22.80;;;20.60;;
11245;SDS011;59870;50.106;8.580;2024-01-30T11:53:00;28.00;;;19.83;;
11245;SDS011;59870;50.106;8.580;2024-01-30T11:55:29;20.00;;;18.17;;
11245;SDS011;59870;50.106;8.580;2024-01-30T11:58:01;21.20;;;19.13;;
11245;SDS011;59870;50.106;8.580;2024-01-30T12:00:30;20.07;;;18.10;;
11245;SDS011;59870;50.106;8.580;2024-01-30T12:02:59;19.40;;;17.60;;
11245;SDS011;59870;50.106;8.580;2024-01-30T12:05:31;22.40;;;18.20;;
11245;SDS011;59870;50.106;8.580;2024-01-30T12:08:05;20.23;;;18.07;;
11245;SDS011;59870;50.106;8.580;2024-01-30T12:10:36;20.90;;;18.67;;
11245;SDS011;59870;50.106;8.580;2024-01-30T12:13:06;19.87;;;17.93;;
11245;SDS011;59870;50.106;8.580;2024-01-30T12:15:36;18.77;;;17.07;;
11245;SDS011;59870;50.106;8.580;2024-01-30T12:18:04;19.63;;;17.63;;
11245;SDS011;59870;50.106;8.580;2024-01-30T12:20:34;19.93;;;17.90;;
11245;SDS011;59870;50.106;8.580;2024-01-30T12:23:01;20.40;;;18.37;;
11245;SDS011;59870;50.106;8.580;2024-01-30T12:25:29;19.53;;;17.40;;
11245;SDS011;59870;50.106;8.580;2024-01-30T12:28:01;18.53;;;16.70;;
11245;SDS011;59870;50.106;8.580;2024-01-30T12:30:30;20.67;;;18.50;;
11245;SDS011;59870;50.106;8.580;2024-01-30T12:32:58;19.57;;;17.40;;
11245;SDS011;59870;50.106;8.580;2024-01-30T12:35:29;20.13;;;18.27;;
11245;SDS011;59870;50.106;8.580;2024-01-30T12:38:00;21.10;;;19.00;;
11245;SDS011;59870;50.106;8.580;2024-01-30T12:44:00;19.47;;;17.60;;
11245;SDS011;59870;50.106;8.580;2024-01-30T13:00:00;19.17;;;17.17;;
11245;SDS011;59870;50.106;8.580;2024-01-30T13:12:28;18.20;;;16.23;;
11245;SDS011;59870;50.106;8.580;2024-01-30T13:51:38;18.37;;;16.77;;
11245;SDS011;59870;50.106;8.580;2024-01-30T14:20:07;19.43;;;17.73;;
11245;SDS011;59870;50.106;8.580;2024-01-30T14:22:35;19.77;;;17.60;;
11245;SDS011;59870;50.106;8.580;2024-01-30T14:27:39;19.17;;;17.40;;
11245;SDS011;59870;50.106;8.580;2024-01-30T14:30:09;20.27;;;18.37;;
11245;SDS011;59870;50.106;8.580;2024-01-30T14:32:38;19.53;;;17.73;;
11245;SDS011;59870;50.106;8.580;2024-01-30T14:35:07;19.53;;;17.73;;
11245;SDS011;59870;50.106;8.580;2024-01-30T14:37:37;21.03;;;18.90;;
11245;SDS011;59870;50.106;8.580;2024-01-30T14:40:05;20.03;;;18.17;;
11245;SDS011;59870;50.106;8.580;2024-01-30T14:42:36;20.07;;;17.97;;
11245;SDS011;59870;50.106;8.580;2024-01-30T14:45:05;19.73;;;17.90;;
11245;SDS011;59870;50.106;8.580;2024-01-30T14:47:33;20.23;;;18.33;;
11245;SDS011;59870;50.106;8.580;2024-01-30T14:52:58;19.90;;;18.10;;
11245;SDS011;59870;50.106;8.580;2024-01-30T14:55:27;19.77;;;18.07;;
11245;SDS011;59870;50.106;8.580;2024-01-30T14:57:57;23.37;;;18.47;;
11245;SDS011;59870;50.106;8.580;2024-01-30T15:00:47;20.20;;;18.30;;
11245;SDS011;59870;50.106;8.580;2024-01-30T15:03:36;22.37;;;17.60;;
11245;SDS011;59870;50.106;8.580;2024-01-30T15:06:04;19.17;;;17.13;;
11245;SDS011;59870;50.106;8.580;2024-01-30T15:08:33;19.60;;;17.50;;
11245;SDS011;59870;50.106;8.580;2024-01-30T15:11:03;20.47;;;18.50;;
11245;SDS011;59870;50.106;8.580;2024-01-30T15:13:33;18.90;;;17.07;;
11245;SDS011;59870;50.106;8.580;2024-01-30T15:22:28;21.20;;;17.70;;
11245;SDS011;59870;50.106;8.580;2024-01-30T15:24:55;18.03;;;16.23;;
11245;SDS011;59870;50.106;8.580;2024-01-30T15:27:32;19.73;;;17.63;;
11245;SDS011;59870;50.106;8.580;2024-01-30T15:29:59;18.90;;;17.07;;
11245;SDS011;59870;50.106;8.580;2024-01-30T15:32:29;18.23;;;16.40;;
11245;SDS011;59870;50.106;8.580;2024-01-30T15:34:57;19.90;;;17.80;;
11245;SDS011;59870;50.106;8.580;2024-01-30T15:37:31;18.10;;;16.27;;
11245;SDS011;59870;50.106;8.580;2024-01-30T15:40:05;21.07;;;17.53;;
11245;SDS011;59870;50.106;8.580;2024-01-30T15:42:34;19.70;;;17.10;;
11245;SDS011;59870;50.106;8.580;2024-01-30T15:45:02;19.10;;;17.13;;
11245;SDS011;59870;50.106;8.580;2024-01-30T15:47:31;18.00;;;16.30;;
11245;SDS011;59870;50.106;8.580;2024-01-30T15:49:59;19.03;;;17.17;;
11245;SDS011;59870;50.106;8.580;2024-01-30T15:52:27;18.63;;;16.93;;
11245;SDS011;59870;50.106;8.580;2024-01-30T15:54:56;20.17;;;17.60;;
11245;SDS011;59870;50.106;8.580;2024-01-30T16:00:21;19.30;;;17.40;;
11245;SDS011;59870;50.106;8.580;2024-01-30T16:02:50;19.23;;;17.27;;
11245;SDS011;59870;50.106;8.580;2024-01-30T16:09:10;19.30;;;17.33;;
11245;SDS011;59870;50.106;8.580;2024-01-30T16:11:38;18.77;;;17.07;;
11245;SDS011;59870;50.106;8.580;2024-01-30T16:14:05;17.83;;;16.13;;
11245;SDS011;59870;50.106;8.580;2024-01-30T16:16:34;18.17;;;16.33;;
11245;SDS011;59870;50.106;8.580;2024-01-30T16:22:37;17.33;;;15.60;;
11245;SDS011;59870;50.106;8.580;2024-01-30T16:25:06;16.77;;;15.27;;
11245;SDS011;59870;50.106;8.580;2024-01-30T16:27:55;17.07;;;15.57;;
11245;SDS011;59870;50.106;8.580;2024-01-30T16:47:06;20.00;;;18.00;;
11245;SDS011;59870;50.106;8.580;2024-01-30T16:49:55;17.97;;;16.37;;
11245;SDS011;59870;50.106;8.580;2024-01-30T16:55:53;20.17;;;18.27;;
11245;SDS011;59870;50.106;8.580;2024-01-30T16:58:42;19.40;;;17.53;;
11245;SDS011;59870;50.106;8.580;2024-01-30T17:01:29;21.17;;;18.90;;
11245;SDS011;59870;50.106;8.580;2024-01-30T17:24:01;19.00;;;17.20;;
11245;SDS011;59870;50.106;8.580;2024-01-30T17:26:52;18.53;;;16.83;;
11245;SDS011;59870;50.106;8.580;2024-01-30T17:36:34;18.40;;;16.60;;
11245;SDS011;59870;50.106;8.580;2024-01-30T17:40:32;17.97;;;16.23;;
11245;SDS011;59870;50.106;8.580;2024-01-30T17:43:26;18.07;;;16.23;;
11245;SDS011;59870;50.106;8.580;2024-01-30T17:50:26;18.83;;;16.93;;
11245;SDS011;59870;50.106;8.580;2024-01-30T17:53:17;18.90;;;16.97;;
11245;SDS011;59870;50.106;8.580;2024-01-30T17:56:07;17.60;;;15.97;;
11245;SDS011;59870;50.106;8.580;2024-01-30T17:59:01;21.23;;;15.87;;
11245;SDS011;59870;50.106;8.580;2024-01-30T18:01:47;18.50;;;16.60;;
11245;SDS011;59870;50.106;8.580;2024-01-30T18:18:30;17.20;;;15.57;;